Cumshewa Island, British Columbia

10:02 AM PST on February 26, 2017 (GMT -0800)
Sandspit | | Change Station

Elev 20 ft 53.25 °N, 131.82 °W | Updated 1 hour ago

Clear
Clear
37 °F
Feels Like 28 °F
N
15
Wind Variable Wind from NNW
Gusts 21 mph

Today
High -- | Low -- °F
--% Chance of Precip.
Yesterday
High -- | Low -- °F
Precip. -- in
Pressure 30.14 in
Visibility 9.0 miles
Clouds Clear
Windchill 28 °F
Dew Point 30 °F
Humidity 75%
Rainfall 0.00 in
Snow Depth Not available.
7:39 AM 6:20 PM
New Moon, 0% visible
METAR CYZP 261700Z AUTO 33013G18KT 9SM CLR 03/M01 A3013 RMK SLP205
Pressure 30.14 in
Visibility 9.0 miles
Clouds Clear
Windchill 28 °F
Dew Point 30 °F
Humidity 75%
Rainfall 0.00 in
Snow Depth Not available.
7:39 AM 6:20 PM
New Moon, 0% visible
METAR CYZP 261700Z AUTO 33013G18KT 9SM CLR 03/M01 A3013 RMK SLP205

Get Your Daily Forecast Email!

Thanks for signing up!

Be on the lookout for a verification email in your inbox.

You'll start receiving the daily forecast at 8 AM.

×

10-Day Weather Forecast

Almanac

Astronomy

Feb. 26, 2017 Rise Set
Actual Time
Civil Twilight
Nautical Twilight
Astronomical Twilight
Moon
Length of Visible Light
Length of Day
Tomorrow will be .
, % of the Moon is Illuminated

Today's Extremes

Country Highs Country Lows

Community

WunderPhotos

Upload Photos

1,962,540 photos uploaded!

WunderBlog® & News

Nearby

Air Quality

  Air Quality AQ Index Pollutant
Not available.

Snow Depth

Station Depth Elevation

Earthquake Activity

City Distance Mag. Time & Date
Minimum magnitude displayed is 2.5.

Coastal Water Temperatures

Place Temperature

Stations

Nearby Weather Stations

Station Location Temp. Windchill Dew Point Humidity Wind Precip. Elev Updated Type
                   

Watches & Warnings

There are currently no watches in effect.